Terminal Aerodrome Forecast
Issued by NWS Lake Charles, LA

Home | Current Version | Previous Version | Text Only | Print | Product List | Glossary On
Versions: 1 2 3 4 5 6 7 8 9 10 11 12 13 14 15 16 17 18 19
751
FTUS44 KLCH 230520
TAFAEX
TAF
KAEX 230520Z 2306/2406 30018G26KT P6SM SCT035
     FM231200 33012KT P6SM SKC
     FM240000 30003KT P6SM SKC=

USA.gov is the U.S. government's official web portal to all federal, state and local government web resources and services.